Time;durP1;ratioP1;P1;durP2;ratioP2;P2;SDS_P1;SDS_P2;PMS_P1;PMS_P2;Temp;Humidity;BMP_temperature;BMP_pressure;BME280_temperature;BME280_humidity;BME280_pressure;Samples;Min_cycle;Max_cycle;Signal;HPM_P1;HPM_P2
2022/10/01 00:00:48;;;;;;;30.10;17.38;;;;;;;10.56;100.00;99155.09;5173607;27;20056;-60
2022/10/01 00:03:14;;;;;;;30.58;18.30;;;;;;;10.62;100.00;99147.34;5173510;27;20054;-60
2022/10/01 00:05:40;;;;;;;33.00;19.63;;;;;;;10.62;100.00;99153.63;5173520;27;20042;-61
2022/10/01 00:08:07;;;;;;;36.17;18.92;;;;;;;10.62;100.00;99159.13;5173373;27;20054;-60
2022/10/01 00:10:33;;;;;;;36.75;19.98;;;;;;;10.64;100.00;99162.28;5173511;27;20042;-60
2022/10/01 00:12:59;;;;;;;31.42;18.83;;;;;;;10.63;100.00;99159.91;5173375;27;20054;-61
2022/10/01 00:15:26;;;;;;;34.58;19.95;;;;;;;10.61;100.00;99163.03;5173345;27;20046;-61
2022/10/01 00:17:53;;;;;;;36.83;21.13;;;;;;;10.60;100.00;99161.44;5173353;27;20050;-61
2022/10/01 00:20:19;;;;;;;36.08;19.50;;;;;;;10.59;100.00;99163.38;5173531;27;20080;-61
2022/10/01 00:22:46;;;;;;;33.65;19.52;;;;;;;10.57;100.00;99159.44;5173287;27;20505;-60
2022/10/01 00:25:12;;;;;;;34.95;19.55;;;;;;;10.58;100.00;99167.28;5173382;27;20046;-61
2022/10/01 00:27:39;;;;;;;34.05;19.00;;;;;;;10.61;100.00;99157.53;5173177;27;20046;-60
2022/10/01 00:30:07;;;;;;;36.40;18.45;;;;;;;10.64;100.00;99156.03;5173325;27;20057;-60
2022/10/01 00:32:33;;;;;;;31.02;18.75;;;;;;;10.62;100.00;99159.13;5173154;27;20050;-61
2022/10/01 00:35:01;;;;;;;37.45;18.65;;;;;;;10.62;100.00;99144.63;5173159;27;20052;-61
2022/10/01 00:37:28;;;;;;;29.85;17.58;;;;;;;10.62;100.00;99150.88;5172938;27;20050;-61
2022/10/01 00:39:54;;;;;;;30.15;18.05;;;;;;;10.59;100.00;99143.38;5172807;27;20098;-61
2022/10/01 00:42:23;;;;;;;30.58;17.67;;;;;;;10.50;100.00;99138.16;5172923;27;20056;-61
2022/10/01 00:44:50;;;;;;;33.05;17.20;;;;;;;10.29;100.00;99133.06;5173026;27;20053;-61
2022/10/01 00:47:26;;;;;;;30.23;18.30;;;;;;;10.44;100.00;99114.16;5172986;27;20046;-61
2022/10/01 00:50:02;;;;;;;29.80;17.65;;;;;;;10.46;100.00;99114.56;5173045;27;20050;-61
2022/10/01 00:52:32;;;;;;;26.48;16.67;;;;;;;10.25;100.00;99109.50;5172661;27;20073;-60
2022/10/01 00:55:04;;;;;;;33.60;18.02;;;;;;;10.12;100.00;99093.22;5172664;27;20050;-61
2022/10/01 00:57:31;;;;;;;31.02;18.27;;;;;;;10.30;100.00;99082.63;5172806;27;20049;-60
2022/10/01 01:00:01;;;;;;;30.02;17.08;;;;;;;10.26;100.00;99080.94;5172687;27;20050;-61
2022/10/01 01:02:28;;;;;;;27.88;15.45;;;;;;;10.25;100.00;99071.13;5172784;27;20064;-61
2022/10/01 01:04:54;;;;;;;32.10;17.20;;;;;;;10.17;100.00;99077.66;5172599;27;20049;-60
2022/10/01 01:07:21;;;;;;;31.00;17.13;;;;;;;10.00;100.00;99074.22;5172657;27;20050;-60
2022/10/01 01:09:50;;;;;;;34.55;17.35;;;;;;;10.04;100.00;99055.91;5172625;27;20046;-61
2022/10/01 01:12:30;;;;;;;32.38;17.30;;;;;;;10.01;100.00;99042.16;5172867;27;20054;-60
2022/10/01 01:15:06;;;;;;;31.55;17.88;;;;;;;10.05;100.00;99032.81;5172755;27;20049;-60
2022/10/01 01:17:42;;;;;;;28.20;15.85;;;;;;;9.66;100.00;99021.97;5172556;27;20073;-61
2022/10/01 01:20:28;;;;;;;34.42;17.00;;;;;;;9.93;100.00;99013.03;5172174;27;20050;-60
2022/10/01 01:23:05;;;;;;;32.15;16.88;;;;;;;10.01;100.00;99014.75;5172607;27;20042;-60
2022/10/01 01:25:38;;;;;;;27.77;15.98;;;;;;;10.08;100.00;99020.34;5171579;27;20071;-60
2022/10/01 01:28:19;;;;;;;28.40;16.20;;;;;;;10.02;100.00;99039.03;5172498;27;20047;-60
2022/10/01 01:30:48;;;;;;;29.38;18.27;;;;;;;10.02;100.00;99046.47;5172319;27;20046;-60
2022/10/01 01:33:17;;;;;;;24.58;15.95;;;;;;;10.11;100.00;99042.31;5172255;27;20046;-60
2022/10/01 01:35:50;;;;;;;27.80;16.90;;;;;;;10.16;100.00;99043.97;5172692;27;20466;-60
2022/10/01 01:38:21;;;;;;;25.07;15.17;;;;;;;10.01;100.00;99044.88;5172076;27;20406;-61
2022/10/01 01:40:50;;;;;;;28.77;16.48;;;;;;;10.10;100.00;99043.50;5171925;27;20501;-61
2022/10/01 01:43:22;;;;;;;30.95;15.48;;;;;;;10.16;100.00;99046.69;5172162;27;20062;-60
2022/10/01 01:45:53;;;;;;;28.45;16.45;;;;;;;10.05;100.00;99037.50;5172171;27;20050;-60
2022/10/01 01:48:22;;;;;;;27.75;15.63;;;;;;;9.89;100.00;99046.63;5172361;27;20058;-61
2022/10/01 01:50:54;;;;;;;29.73;16.80;;;;;;;9.95;100.00;99040.84;5172235;27;20065;-61
2022/10/01 01:53:20;;;;;;;24.98;15.32;;;;;;;9.95;100.00;99038.91;5171873;27;20054;-61
2022/10/01 01:55:48;;;;;;;25.00;14.45;;;;;;;10.12;100.00;99043.13;5172130;27;20046;-61
2022/10/01 01:58:15;;;;;;;26.75;14.02;;;;;;;10.01;100.00;99053.09;5171776;27;20050;-61
2022/10/01 02:00:42;;;;;;;26.35;14.95;;;;;;;9.82;100.00;99046.47;5171875;27;20054;-61
2022/10/01 02:03:10;;;;;;;28.40;15.93;;;;;;;9.97;100.00;99041.28;5171731;27;20053;-61
2022/10/01 02:05:43;;;;;;;21.88;14.68;;;;;;;9.86;100.00;99035.59;5171799;27;20050;-61
2022/10/01 02:08:31;;;;;;;31.52;16.25;;;;;;;9.96;100.00;99035.00;5171860;27;20046;-61
2022/10/01 02:11:14;;;;;;;24.67;15.50;;;;;;;10.02;100.00;99033.56;5171782;27;20058;-61
2022/10/01 02:13:49;;;;;;;24.45;15.73;;;;;;;9.86;100.00;99030.94;5171967;27;20047;-60
2022/10/01 02:16:24;;;;;;;26.48;14.32;;;;;;;9.68;100.00;99016.09;5171457;27;20412;-60
2022/10/01 02:18:58;;;;;;;24.05;14.35;;;;;;;9.67;100.00;98995.38;5171678;27;20058;-60
2022/10/01 02:21:30;;;;;;;22.90;15.02;;;;;;;9.83;100.00;98971.44;5171685;27;20455;-60
2022/10/01 02:24:01;;;;;;;26.45;15.00;;;;;;;9.56;100.00;98980.69;5171472;27;20051;-60
2022/10/01 02:26:30;;;;;;;28.20;14.95;;;;;;;9.71;100.00;98970.81;5171567;27;20057;-60
2022/10/01 02:29:02;;;;;;;27.92;15.25;;;;;;;9.77;100.00;98958.41;5171887;27;20050;-60
2022/10/01 02:31:31;;;;;;;24.95;14.75;;;;;;;9.88;100.00;98965.63;5171484;27;20050;-61
2022/10/01 02:34:01;;;;;;;25.75;15.50;;;;;;;10.01;100.00;98962.72;5171459;27;20054;-60
2022/10/01 02:36:30;;;;;;;21.98;14.10;;;;;;;9.81;100.00;98979.19;5172014;27;20050;-60
2022/10/01 02:38:58;;;;;;;24.15;14.98;;;;;;;9.90;100.00;98974.28;5175166;27;20053;-59
2022/10/01 02:41:30;;;;;;;28.00;15.80;;;;;;;9.79;100.00;98984.25;5174979;27;20046;-60
2022/10/01 02:44:00;;;;;;;24.55;14.25;;;;;;;9.83;100.00;98967.88;5175020;27;20046;-60
2022/10/01 02:46:32;;;;;;;25.38;15.15;;;;;;;9.99;100.00;98973.25;5175239;27;20618;-60
2022/10/01 02:49:00;;;;;;;26.95;14.77;;;;;;;9.99;100.00;98989.66;5174984;27;20046;-60
2022/10/01 02:51:36;;;;;;;22.50;14.80;;;;;;;9.77;100.00;98977.56;5174840;27;20137;-61
2022/10/01 02:54:08;;;;;;;26.77;15.93;;;;;;;9.85;100.00;98974.56;5174818;27;20046;-60
2022/10/01 02:59:21;;;;;;;23.23;14.35;;;;;;;9.76;100.00;98974.00;5175039;27;20101;-61
2022/10/01 03:01:48;;;;;;;23.33;14.35;;;;;;;9.82;100.00;98980.00;5174465;27;20449;-61
2022/10/01 03:04:14;;;;;;;23.92;15.10;;;;;;;9.85;100.00;98971.06;5174543;27;20050;-61
2022/10/01 03:06:40;;;;;;;21.75;14.48;;;;;;;9.59;100.00;98974.47;5174770;27;20412;-61
2022/10/01 03:09:07;;;;;;;24.35;14.30;;;;;;;9.84;100.00;98964.00;5174472;27;20046;-61
2022/10/01 03:11:34;;;;;;;25.65;16.25;;;;;;;9.82;100.00;98958.88;5174623;27;20078;-61
2022/10/01 03:14:00;;;;;;;23.25;14.57;;;;;;;9.52;100.00;98947.00;5174329;27;20060;-61
2022/10/01 03:16:26;;;;;;;22.40;13.52;;;;;;;9.61;100.00;98939.34;5174354;27;20058;-61
2022/10/01 03:18:53;;;;;;;26.42;15.52;;;;;;;9.90;100.00;98938.69;5174394;27;20046;-61
2022/10/01 03:21:19;;;;;;;25.10;15.43;;;;;;;9.99;100.00;98949.38;5174424;27;20062;-61
2022/10/01 03:23:45;;;;;;;27.35;15.93;;;;;;;10.06;100.00;98954.19;5174153;27;20042;-61
2022/10/01 03:26:12;;;;;;;25.23;15.60;;;;;;;9.95;100.00;98955.97;5174256;27;20106;-61
2022/10/01 03:28:38;;;;;;;26.15;16.63;;;;;;;9.99;100.00;98951.34;5174153;27;20054;-61
2022/10/01 03:31:06;;;;;;;27.10;15.32;;;;;;;10.07;100.00;98947.56;5174180;27;20050;-61
2022/10/01 03:33:32;;;;;;;28.15;15.65;;;;;;;9.65;100.00;98951.94;5174142;27;20054;-61
2022/10/01 03:35:59;;;;;;;26.90;15.43;;;;;;;9.74;100.00;98951.72;5173985;27;20051;-61
2022/10/01 03:38:25;;;;;;;22.15;14.80;;;;;;;9.90;100.00;98941.44;5174252;27;20057;-61
2022/10/01 03:40:52;;;;;;;28.55;15.73;;;;;;;9.72;100.00;98932.09;5173972;27;20058;-61
2022/10/01 03:43:18;;;;;;;23.15;14.38;;;;;;;9.58;100.00;98918.97;5174149;27;20042;-61
2022/10/01 03:45:44;;;;;;;23.55;14.90;;;;;;;9.73;100.00;98902.78;5173890;27;20042;-61
2022/10/01 03:48:10;;;;;;;27.60;15.15;;;;;;;9.68;100.00;98903.09;5173768;27;20438;-61
2022/10/01 03:50:36;;;;;;;26.95;15.27;;;;;;;9.81;100.00;98905.28;5173631;27;20050;-61
2022/10/01 03:53:04;;;;;;;27.05;15.40;;;;;;;9.78;100.00;98913.44;5173831;27;20103;-61
2022/10/01 03:55:31;;;;;;;29.33;16.30;;;;;;;9.75;100.00;98914.16;5173738;27;20485;-61
2022/10/01 03:57:57;;;;;;;29.40;16.35;;;;;;;9.64;100.00;98908.50;5173691;27;20500;-61
2022/10/01 04:00:24;;;;;;;25.90;16.77;;;;;;;9.66;100.00;98897.97;5173376;27;20061;-61
2022/10/01 04:02:50;;;;;;;34.97;17.52;;;;;;;9.79;100.00;98893.91;5173859;27;20046;-61
2022/10/01 04:05:16;;;;;;;27.48;16.48;;;;;;;9.77;100.00;98909.13;5173549;27;20541;-61
2022/10/01 04:07:42;;;;;;;30.02;16.05;;;;;;;9.97;100.00;98907.09;5173831;27;20052;-61
2022/10/01 04:10:09;;;;;;;30.25;17.30;;;;;;;9.82;100.00;98915.06;5173652;27;20497;-61
2022/10/01 04:12:36;;;;;;;29.67;18.02;;;;;;;9.98;100.00;98919.63;5173657;27;20058;-61
2022/10/01 04:15:02;;;;;;;29.55;16.73;;;;;;;9.80;100.00;98927.56;5173539;27;20046;-61
2022/10/01 04:17:28;;;;;;;27.48;17.35;;;;;;;10.06;100.00;98930.34;5173200;27;20137;-61
2022/10/01 04:19:56;;;;;;;32.83;17.00;;;;;;;10.16;100.00;98939.06;5173527;27;20050;-61
2022/10/01 04:22:22;;;;;;;31.17;17.65;;;;;;;10.21;100.00;98956.00;5173612;27;20051;-61
2022/10/01 04:24:49;;;;;;;31.58;16.27;;;;;;;10.02;100.00;98950.59;5173204;27;20046;-61
2022/10/01 04:27:15;;;;;;;27.63;17.00;;;;;;;9.98;100.00;98941.53;5173507;27;20050;-61
2022/10/01 04:29:42;;;;;;;30.90;16.67;;;;;;;9.70;100.00;98945.38;5173607;27;20060;-61
2022/10/01 04:32:08;;;;;;;30.95;16.33;;;;;;;9.95;100.00;98915.66;5173478;27;20352;-61
2022/10/01 04:34:52;;;;;;;26.88;16.02;;;;;;;9.64;100.00;98925.72;5173353;27;20141;-61
2022/10/01 04:37:18;;;;;;;27.75;15.55;;;;;;;9.66;100.00;98917.13;5173292;27;20054;-61
2022/10/01 04:39:45;;;;;;;29.65;17.38;;;;;;;9.66;100.00;98904.25;5172845;27;20053;-61
2022/10/01 04:42:12;;;;;;;27.00;16.13;;;;;;;9.72;100.00;98890.25;5173228;27;20416;-61
2022/10/01 04:44:39;;;;;;;31.80;16.13;;;;;;;9.71;100.00;98880.47;5172873;27;20137;-61
2022/10/01 04:47:05;;;;;;;26.80;16.48;;;;;;;9.84;100.00;98876.38;5172723;27;20046;-61
2022/10/01 04:49:32;;;;;;;25.00;15.00;;;;;;;9.56;100.00;98882.97;5172838;27;20099;-61
2022/10/01 04:51:59;;;;;;;26.52;15.07;;;;;;;9.73;100.00;98878.13;5172790;27;20050;-61
2022/10/01 04:54:25;;;;;;;30.98;16.45;;;;;;;10.08;100.00;98880.66;5172596;27;20050;-61
2022/10/01 04:56:52;;;;;;;25.10;15.10;;;;;;;9.62;100.00;98889.69;5172875;27;20046;-62
2022/10/01 04:59:18;;;;;;;28.70;15.68;;;;;;;9.89;100.00;98871.38;5171974;27;20049;-61
2022/10/01 05:01:45;;;;;;;25.33;14.90;;;;;;;9.45;100.00;98892.13;5172713;27;20428;-61
2022/10/01 05:04:12;;;;;;;26.05;14.50;;;;;;;9.70;100.00;98876.94;5172590;27;20042;-61
2022/10/01 05:06:40;;;;;;;23.30;14.73;;;;;;;9.89;100.00;98881.53;5172357;27;20054;-61
2022/10/01 05:09:06;;;;;;;26.08;14.93;;;;;;;9.46;100.00;98882.75;5172859;27;20154;-61
2022/10/01 05:11:33;;;;;;;23.20;14.63;;;;;;;9.78;100.00;98875.91;5172503;27;20102;-61
2022/10/01 05:13:59;;;;;;;25.35;14.38;;;;;;;9.71;100.00;98873.03;5172460;27;20046;-61
2022/10/01 05:16:25;;;;;;;21.08;13.60;;;;;;;9.63;100.00;98876.84;5172416;27;20050;-61
2022/10/01 05:18:55;;;;;;;24.25;14.75;;;;;;;9.84;100.00;98874.44;5172461;27;20454;-61
2022/10/01 05:21:21;;;;;;;25.27;15.15;;;;;;;10.01;100.00;98878.59;5172315;27;20058;-61
2022/10/01 05:23:47;;;;;;;23.35;15.25;;;;;;;10.03;100.00;98881.78;5172375;27;20505;-61
2022/10/01 05:26:14;;;;;;;22.13;13.75;;;;;;;9.91;100.00;98892.94;5172481;27;20503;-61
2022/10/01 05:28:43;;;;;;;22.17;14.15;;;;;;;9.77;100.00;98898.97;5172195;27;20565;-61
2022/10/01 05:31:09;;;;;;;23.48;13.23;;;;;;;9.88;100.00;98886.22;5172587;27;20493;-61
2022/10/01 05:33:36;;;;;;;23.25;14.10;;;;;;;10.17;100.00;98878.47;5172073;27;20046;-61
2022/10/01 05:36:06;;;;;;;22.05;14.73;;;;;;;10.16;100.00;98887.81;5172692;27;20078;-61
2022/10/01 05:38:35;;;;;;;23.58;13.40;;;;;;;10.19;100.00;98898.03;5172046;27;20054;-61
2022/10/01 05:41:01;;;;;;;19.05;12.98;;;;;;;10.08;100.00;98894.38;5172158;27;20042;-61
2022/10/01 05:43:27;;;;;;;21.38;12.43;;;;;;;10.13;100.00;98889.38;5172127;27;20050;-61
2022/10/01 05:45:53;;;;;;;21.00;12.95;;;;;;;10.19;100.00;98889.03;5172161;27;20132;-61
2022/10/01 05:48:20;;;;;;;20.08;12.15;;;;;;;10.06;100.00;98885.72;5171959;27;20102;-61
2022/10/01 05:50:48;;;;;;;18.40;12.13;;;;;;;9.96;100.00;98867.16;5172138;27;20050;-61
2022/10/01 05:53:15;;;;;;;18.55;10.98;;;;;;;9.83;100.00;98872.06;5171813;27;20050;-61
2022/10/01 05:55:41;;;;;;;19.55;11.90;;;;;;;10.22;100.00;98856.22;5171928;27;20052;-61
2022/10/01 05:58:09;;;;;;;17.35;10.90;;;;;;;10.20;100.00;98864.03;5172187;27;20042;-61
2022/10/01 06:00:37;;;;;;;19.23;11.20;;;;;;;10.30;100.00;98857.94;5171641;27;20053;-61
2022/10/01 06:03:05;;;;;;;19.27;11.35;;;;;;;10.23;100.00;98857.00;5172092;27;20497;-61
2022/10/01 06:05:32;;;;;;;17.70;11.13;;;;;;;10.42;100.00;98843.22;5171694;27;20043;-61
2022/10/01 06:07:59;;;;;;;17.98;10.75;;;;;;;10.22;100.00;98842.50;5171914;27;20535;-62
2022/10/01 06:10:29;;;;;;;20.17;12.05;;;;;;;10.45;100.00;98836.19;5172485;27;20058;-61
2022/10/01 06:12:59;;;;;;;13.48;10.15;;;;;;;10.33;100.00;98846.25;5175695;27;20497;-61
2022/10/01 06:15:25;;;;;;;14.40;9.65;;;;;;;10.39;100.00;98856.88;5175253;27;20046;-61
2022/10/01 06:17:51;;;;;;;17.45;9.98;;;;;;;10.44;100.00;98864.78;5175614;27;20050;-61
2022/10/01 06:20:19;;;;;;;13.10;8.80;;;;;;;10.44;100.00;98873.00;5175555;27;20064;-61
2022/10/01 06:22:53;;;;;;;13.20;9.32;;;;;;;10.49;100.00;98870.69;5175475;27;20429;-61
2022/10/01 06:25:19;;;;;;;14.63;9.52;;;;;;;10.53;100.00;98874.31;5175580;27;20103;-61
2022/10/01 06:27:56;;;;;;;14.50;9.05;;;;;;;10.06;100.00;98872.84;5175000;27;20105;-61
2022/10/01 06:30:23;;;;;;;11.95;7.97;;;;;;;10.05;100.00;98848.53;5175494;27;20058;-61
2022/10/01 06:32:50;;;;;;;13.20;8.55;;;;;;;10.30;100.00;98821.53;5174913;27;20057;-61
2022/10/01 06:35:16;;;;;;;10.30;7.43;;;;;;;10.27;100.00;98822.28;5175089;27;20045;-61
2022/10/01 06:37:42;;;;;;;10.48;7.97;;;;;;;10.29;100.00;98815.25;5174913;27;20050;-61
2022/10/01 06:40:09;;;;;;;13.52;8.68;;;;;;;10.48;100.00;98816.28;5174726;27;20058;-61
2022/10/01 06:42:35;;;;;;;12.25;7.95;;;;;;;10.22;100.00;98804.16;5174951;27;20493;-61
2022/10/01 06:45:03;;;;;;;11.77;8.30;;;;;;;10.19;100.00;98791.22;5174795;27;20042;-61
2022/10/01 06:47:29;;;;;;;10.07;7.43;;;;;;;10.46;100.00;98781.03;5174970;27;20069;-61
2022/10/01 06:49:55;;;;;;;9.07;7.63;;;;;;;10.13;100.00;98788.03;5174638;27;20050;-61
2022/10/01 06:55:19;;;;;;;15.30;7.80;;;;;;;10.54;100.00;98779.94;5089952;28;20473;-61
2022/10/01 06:57:46;;;;;;;12.27;6.60;;;;;;;10.60;100.00;98783.16;5154812;27;20050;-61
2022/10/01 07:00:13;;;;;;;9.57;6.93;;;;;;;10.58;100.00;98788.22;5174612;27;20099;-61
2022/10/01 07:02:40;;;;;;;9.60;7.35;;;;;;;10.62;100.00;98793.72;5174459;27;20047;-61
2022/10/01 07:05:08;;;;;;;11.18;6.85;;;;;;;10.71;100.00;98807.94;5174711;27;20050;-61
2022/10/01 07:07:36;;;;;;;12.13;7.53;;;;;;;10.50;100.00;98813.97;5174400;27;20046;-61
2022/10/01 07:10:04;;;;;;;10.52;7.45;;;;;;;10.69;100.00;98799.28;5174647;27;20061;-61
2022/10/01 07:12:30;;;;;;;10.07;7.07;;;;;;;10.66;100.00;98791.81;5174207;27;20504;-61
2022/10/01 07:14:56;;;;;;;9.15;7.20;;;;;;;10.54;100.00;98788.16;5174348;27;20528;-61
2022/10/01 07:17:23;;;;;;;10.77;7.20;;;;;;;10.58;100.00;98783.50;5174197;27;20046;-61
2022/10/01 07:19:50;;;;;;;10.13;7.53;;;;;;;10.53;100.00;98780.31;5174020;27;20046;-62
2022/10/01 07:22:18;;;;;;;8.80;6.82;;;;;;;9.99;100.00;98757.69;5173256;27;20050;-62
2022/10/01 07:24:45;;;;;;;10.45;7.28;;;;;;;10.44;100.00;98735.97;5174414;27;20402;-62
2022/10/01 07:27:11;;;;;;;8.48;6.70;;;;;;;10.58;100.00;98733.38;5174205;27;20500;-62
2022/10/01 07:29:38;;;;;;;8.75;6.93;;;;;;;10.56;100.00;98744.75;5173982;27;20050;-61
2022/10/01 07:32:07;;;;;;;9.20;7.05;;;;;;;10.39;100.00;98736.28;5174263;27;20117;-61
2022/10/01 07:34:36;;;;;;;9.70;7.15;;;;;;;10.63;100.00;98730.31;5173959;27;20129;-61
2022/10/01 07:37:03;;;;;;;9.25;6.50;;;;;;;10.29;100.00;98724.81;5173976;27;20099;-61
2022/10/01 07:39:29;;;;;;;13.15;8.43;;;;;;;10.66;100.00;98721.31;5173700;27;20053;-60
2022/10/01 07:41:56;;;;;;;11.48;7.82;;;;;;;10.51;100.00;98720.41;5173886;27;20064;-61
2022/10/01 07:44:22;;;;;;;9.75;7.07;;;;;;;10.63;100.00;98724.03;5173657;27;20106;-61
2022/10/01 07:46:49;;;;;;;13.80;9.00;;;;;;;10.63;100.00;98719.34;5173499;27;20066;-61
2022/10/01 07:49:16;;;;;;;10.60;6.55;;;;;;;10.41;100.00;98720.28;5173487;27;20046;-61
2022/10/01 07:51:43;;;;;;;13.27;7.70;;;;;;;10.79;100.00;98708.91;5173550;27;20054;-61
2022/10/01 07:54:09;;;;;;;11.10;7.32;;;;;;;10.84;100.00;98729.75;5173668;27;20162;-61
2022/10/01 07:56:36;;;;;;;11.18;7.22;;;;;;;10.99;100.00;98730.66;5173506;27;20501;-61
2022/10/01 07:59:02;;;;;;;13.15;8.70;;;;;;;11.11;100.00;98740.56;5173679;27;20187;-61
2022/10/01 08:01:30;;;;;;;10.38;7.03;;;;;;;10.71;100.00;98734.69;5173311;27;20093;-61
2022/10/01 08:03:56;;;;;;;9.68;7.43;;;;;;;11.02;100.00;98735.38;5173710;27;20546;-61
2022/10/01 08:06:23;;;;;;;10.90;7.25;;;;;;;10.83;100.00;98748.16;5173536;27;20125;-61
2022/10/01 08:08:50;;;;;;;12.05;7.13;;;;;;;10.90;100.00;98736.47;5173648;27;20050;-61
2022/10/01 08:11:17;;;;;;;12.20;7.50;;;;;;;11.08;100.00;98725.66;5173201;27;20504;-61
2022/10/01 08:13:44;;;;;;;12.05;8.18;;;;;;;11.07;100.00;98729.56;5173427;27;20137;-62
2022/10/01 08:16:11;;;;;;;11.60;8.00;;;;;;;11.06;100.00;98737.00;5173295;27;20136;-62
2022/10/01 08:18:39;;;;;;;14.50;7.72;;;;;;;11.10;100.00;98739.78;5173647;27;20537;-62
2022/10/01 08:21:05;;;;;;;12.30;7.47;;;;;;;11.17;100.00;98736.31;5173421;27;20081;-62
2022/10/01 08:23:32;;;;;;;11.88;7.35;;;;;;;11.25;100.00;98740.69;5173326;27;20050;-62
2022/10/01 08:26:00;;;;;;;11.38;7.38;;;;;;;11.21;100.00;98739.88;5173280;27;20057;-62
2022/10/01 08:28:27;;;;;;;10.80;7.00;;;;;;;11.28;100.00;98729.72;5173037;27;20047;-62
2022/10/01 08:30:54;;;;;;;10.77;7.68;;;;;;;11.29;100.00;98731.28;5173289;27;20057;-62
2022/10/01 08:33:21;;;;;;;9.85;7.18;;;;;;;11.40;100.00;98736.88;5172613;27;20046;-62
2022/10/01 08:35:48;;;;;;;11.77;7.10;;;;;;;11.08;100.00;98742.09;5172192;27;20053;-62
2022/10/01 08:38:15;;;;;;;8.30;6.15;;;;;;;11.31;100.00;98730.94;5172886;27;20137;-62
2022/10/01 08:40:45;;;;;;;7.85;6.13;;;;;;;11.43;100.00;98751.78;5172959;27;20046;-62
2022/10/01 08:43:26;;;;;;;10.32;6.70;;;;;;;11.52;100.00;98766.75;5172758;27;20042;-62
2022/10/01 08:45:55;;;;;;;8.52;6.03;;;;;;;11.57;100.00;98773.88;5172968;27;20050;-62
2022/10/01 08:48:31;;;;;;;8.93;6.18;;;;;;;11.61;100.00;98782.94;5172985;27;20072;-62
2022/10/01 08:51:03;;;;;;;10.52;5.80;;;;;;;11.67;100.00;98802.59;5172816;27;20050;-62
2022/10/01 08:53:35;;;;;;;7.00;5.35;;;;;;;11.68;100.00;98810.44;5172696;27;20049;-62
2022/10/01 08:56:03;;;;;;;6.13;5.13;;;;;;;11.68;100.00;98824.16;5172753;27;20138;-62
2022/10/01 08:58:40;;;;;;;7.93;5.22;;;;;;;11.70;100.00;98827.31;5173017;27;20081;-62
2022/10/01 09:01:08;;;;;;;9.02;4.82;;;;;;;11.66;100.00;98820.22;5172500;27;20054;-62
2022/10/01 09:03:35;;;;;;;6.45;4.85;;;;;;;11.68;100.00;98831.63;5172519;27;20057;-62
2022/10/01 09:06:15;;;;;;;4.93;4.38;;;;;;;11.72;100.00;98844.19;5172541;27;20081;-62
2022/10/01 09:08:51;;;;;;;6.07;4.50;;;;;;;11.62;100.00;98844.91;5172506;27;20097;-62
2022/10/01 09:11:46;;;;;;;7.80;5.85;;;;;;;11.74;100.00;98817.16;5172786;27;20065;-62
2022/10/01 09:14:29;;;;;;;7.18;5.20;;;;;;;11.78;100.00;98817.97;5172484;27;20110;-62
2022/10/01 09:17:04;;;;;;;7.38;5.82;;;;;;;11.85;100.00;98820.00;5172459;27;20141;-62
2022/10/01 09:19:49;;;;;;;12.90;9.98;;;;;;;11.89;100.00;98807.06;5172582;27;20042;-62
2022/10/01 09:22:24;;;;;;;;;;;;;;;11.94;100.00;98809.47;5172636;27;20054;-62
2022/10/01 09:25:00;;;;;;;13.93;10.75;;;;;;;11.88;100.00;98813.75;5172520;27;19929;-62
2022/10/01 09:27:27;;;;;;;17.88;11.80;;;;;;;11.89;100.00;98809.81;5172220;27;20043;-62
2022/10/01 09:29:59;;;;;;;18.85;13.45;;;;;;;11.99;100.00;98808.31;5172438;27;20101;-62
2022/10/01 09:32:29;;;;;;;20.55;13.50;;;;;;;11.94;100.00;98809.47;5172331;27;20125;-62
2022/10/01 09:34:59;;;;;;;15.52;11.38;;;;;;;11.99;100.00;98792.63;5172114;27;20095;-62
2022/10/01 09:37:33;;;;;;;14.10;10.18;;;;;;;12.01;100.00;98795.78;5172159;27;20133;-62
2022/10/01 09:40:13;;;;;;;13.43;9.65;;;;;;;12.04;100.00;98787.94;5172080;27;20420;-62
2022/10/01 09:42:40;;;;;;;13.23;7.57;;;;;;;12.07;100.00;98776.19;5172433;27;20042;-62
2022/10/01 09:45:11;;;;;;;6.93;5.40;;;;;;;12.04;100.00;98790.69;5172210;27;20046;-62
2022/10/01 09:47:42;;;;;;;8.23;4.47;;;;;;;12.10;100.00;98787.22;5175981;27;20094;-62
2022/10/01 09:50:15;;;;;;;6.85;4.80;;;;;;;12.09;100.00;98796.59;5175697;27;20527;-62
2022/10/01 09:52:45;;;;;;;7.35;5.25;;;;;;;12.12;100.00;98779.34;5176008;27;20046;-62
2022/10/01 09:55:25;;;;;;;5.03;4.15;;;;;;;11.69;100.00;98784.53;5175868;27;20146;-62
2022/10/01 09:57:57;;;;;;;5.30;4.30;;;;;;;11.72;100.00;98775.53;5175629;27;20137;-62
2022/10/01 10:00:26;;;;;;;4.43;4.03;;;;;;;11.94;100.00;98772.97;5175468;27;20094;-62
2022/10/01 10:02:54;;;;;;;6.63;4.70;;;;;;;11.99;100.00;98791.81;5175817;27;20046;-62
2022/10/01 10:05:22;;;;;;;6.63;4.53;;;;;;;11.88;100.00;98788.25;5175751;27;20085;-62
2022/10/01 10:07:51;;;;;;;5.63;4.45;;;;;;;11.86;100.00;98794.13;5175666;27;20046;-62
2022/10/01 10:10:23;;;;;;;5.28;4.78;;;;;;;11.97;100.00;98786.72;5175787;27;20081;-62
2022/10/01 10:12:56;;;;;;;4.70;4.30;;;;;;;12.04;100.00;98786.00;5175339;27;20066;-62
2022/10/01 10:15:25;;;;;;;4.90;4.25;;;;;;;12.00;100.00;98802.44;5175524;27;20101;-63
2022/10/01 10:17:53;;;;;;;4.30;3.83;;;;;;;11.88;100.00;98794.50;5175213;27;20504;-62
2022/10/01 10:20:27;;;;;;;4.15;3.75;;;;;;;11.86;100.00;98793.31;5174999;27;20061;-62
2022/10/01 10:22:54;;;;;;;3.67;3.03;;;;;;;11.81;100.00;98805.44;5175048;27;20046;-63
2022/10/01 10:25:23;;;;;;;3.22;2.92;;;;;;;11.89;100.00;98807.06;5174986;27;20458;-63
2022/10/01 10:27:54;;;;;;;4.03;3.55;;;;;;;11.92;100.00;98813.75;5175289;27;20057;-62
2022/10/01 10:30:23;;;;;;;3.45;3.15;;;;;;;11.81;100.00;98810.13;5175004;27;20540;-62
2022/10/01 10:32:51;;;;;;;3.65;2.88;;;;;;;11.88;100.00;98813.75;5174993;27;20101;-62
2022/10/01 10:35:22;;;;;;;6.82;3.85;;;;;;;11.71;100.00;98815.16;5174874;27;20133;-62
2022/10/01 10:37:52;;;;;;;3.38;3.08;;;;;;;11.90;100.00;98802.38;5175430;27;20138;-62
2022/10/01 10:40:21;;;;;;;3.70;3.20;;;;;;;11.88;100.00;98786.28;5174717;27;20057;-63
2022/10/01 10:42:49;;;;;;;3.25;2.60;;;;;;;11.87;100.00;98794.91;5175184;27;20628;-62
2022/10/01 10:45:19;;;;;;;3.22;2.85;;;;;;;11.94;100.00;98803.97;5175025;27;20092;-62
2022/10/01 10:47:49;;;;;;;3.88;3.30;;;;;;;11.90;100.00;98803.19;5174783;27;20071;-63
2022/10/01 10:50:28;;;;;;;5.85;2.75;;;;;;;11.91;100.00;98793.75;5174846;27;20107;-62
2022/10/01 10:52:55;;;;;;;3.65;3.13;;;;;;;11.95;100.00;98799.28;5174797;27;20085;-62
2022/10/01 10:55:24;;;;;;;4.07;3.10;;;;;;;11.87;100.00;98792.94;5174722;27;20046;-62
2022/10/01 10:57:52;;;;;;;5.53;2.47;;;;;;;12.01;100.00;98790.28;5173804;27;20050;-62
2022/10/01 11:00:22;;;;;;;2.78;2.53;;;;;;;12.08;100.00;98788.75;5174596;27;20466;-62
2022/10/01 11:02:54;;;;;;;2.60;2.08;;;;;;;12.01;100.00;98789.50;5174360;27;20072;-63
2022/10/01 11:05:23;;;;;;;2.17;1.98;;;;;;;11.87;100.00;98798.44;5174407;27;20057;-63
2022/10/01 11:07:53;;;;;;;2.03;1.83;;;;;;;12.18;100.00;98788.03;5174748;27;20097;-63
2022/10/01 11:10:30;;;;;;;2.20;1.80;;;;;;;11.88;100.00;98800.00;5174313;27;20050;-63
2022/10/01 11:13:12;;;;;;;2.67;1.80;;;;;;;11.96;100.00;98798.09;5174788;27;20133;-62
2022/10/01 11:15:56;;;;;;;1.50;1.40;;;;;;;12.12;100.00;98806.81;5174206;27;20049;-62
2022/10/01 11:18:43;;;;;;;3.03;1.93;;;;;;;12.04;100.00;98815.44;5174432;27;20090;-63
2022/10/01 11:21:24;;;;;;;2.03;1.85;;;;;;;12.17;100.00;98813.94;5122300;27;20042;-62
2022/10/01 11:24:21;;;;;;;7.72;2.50;;;;;;;11.91;100.00;98818.47;5173986;27;20050;-62
2022/10/01 11:26:58;;;;;;;2.45;2.00;;;;;;;12.00;100.00;98774.19;5153251;27;20053;-62
2022/10/01 11:29:38;;;;;;;1.70;1.40;;;;;;;12.02;100.00;98761.63;5174217;27;20051;-62
2022/10/01 11:32:18;;;;;;;1.55;1.40;;;;;;;11.70;100.00;98749.66;5173895;27;20141;-62